Current Weather

Aurora Muni

Aurora, Illinois (KARR)

Report from: Wednesday, August 17, 2022 7:52 PM CDT
Current time: Wednesday, August 17, 2022 8:56 PM CDT

Nearby weather
Weather history
Weather forecast

Temperature21.7°C (71.1°F)
Dew point15.6°C (60.1°F)
Winds 3 kts (1.5 m/s, 3.5 mph) North-Northeast (30°)
Visibility10 mi. (16.1 km)
Clouds Sky clear
Altimeter30.07 in.Hg (1018 mB)
Relative humidity68 %
Density altitude856 ft. (261 m)
Sea-level pressure101.8 kPa (1018 mB, 30.06 in.Hg)
Remarks Automated weather observing station with precipitation discriminator
Flight conditions Visual Meteorological Conditions
Raw dataKARR 180052Z 03003KT 10SM CLR 22/16 A3007 RMK AO2 SLP180 T02170156
An error has occurred. This application may no longer respond until reloaded. Reload 🗙